sensor_id;sensor_type;location;lat;lon;timestamp;pressure;altitude;pressure_sealevel;temperature;humidity
70921;BME280;58572;48.110;19.838;2023-04-29T00:00:07;97760.28;;;9.33;81.31
70921;BME280;58572;48.110;19.838;2023-04-29T00:02:35;97752.84;;;9.64;78.68
70921;BME280;58572;48.110;19.838;2023-04-29T00:05:03;97754.25;;;9.51;78.45
70921;BME280;58572;48.110;19.838;2023-04-29T00:07:30;97751.34;;;9.38;80.37
70921;BME280;58572;48.110;19.838;2023-04-29T00:09:59;97748.69;;;9.77;75.44
70921;BME280;58572;48.110;19.838;2023-04-29T00:12:27;97732.09;;;9.29;80.71
70921;BME280;58572;48.110;19.838;2023-04-29T00:14:56;97752.72;;;9.25;81.16
70921;BME280;58572;48.110;19.838;2023-04-29T00:17:23;97704.06;;;8.94;81.84
70921;BME280;58572;48.110;19.838;2023-04-29T00:19:51;97746.28;;;9.11;82.95
70921;BME280;58572;48.110;19.838;2023-04-29T00:22:18;97741.69;;;9.66;76.88
70921;BME280;58572;48.110;19.838;2023-04-29T00:24:47;97749.78;;;9.21;81.36
70921;BME280;58572;48.110;19.838;2023-04-29T00:27:16;97744.31;;;9.81;75.47
70921;BME280;58572;48.110;19.838;2023-04-29T00:29:43;97734.63;;;9.70;78.69
70921;BME280;58572;48.110;19.838;2023-04-29T00:32:10;97731.69;;;10.00;73.96
70921;BME280;58572;48.110;19.838;2023-04-29T00:34:38;97738.75;;;10.01;75.30
70921;BME280;58572;48.110;19.838;2023-04-29T00:37:05;97735.97;;;10.06;73.21
70921;BME280;58572;48.110;19.838;2023-04-29T00:39:32;97731.31;;;9.78;77.95
70921;BME280;58572;48.110;19.838;2023-04-29T00:41:59;97727.75;;;9.33;80.57
70921;BME280;58572;48.110;19.838;2023-04-29T00:44:29;97720.03;;;10.34;71.05
70921;BME280;58572;48.110;19.838;2023-04-29T00:46:56;97721.16;;;10.28;70.49
70921;BME280;58572;48.110;19.838;2023-04-29T00:49:23;97720.44;;;10.51;69.49
70921;BME280;58572;48.110;19.838;2023-04-29T00:51:51;97722.41;;;9.67;78.01
70921;BME280;58572;48.110;19.838;2023-04-29T00:54:19;97717.31;;;9.60;78.91
70921;BME280;58572;48.110;19.838;2023-04-29T00:56:46;97715.72;;;9.93;75.09
70921;BME280;58572;48.110;19.838;2023-04-29T00:59:15;97718.22;;;9.85;77.20
70921;BME280;58572;48.110;19.838;2023-04-29T01:01:43;97715.94;;;10.36;71.74
70921;BME280;58572;48.110;19.838;2023-04-29T01:04:11;97674.03;;;10.08;73.53
70921;BME280;58572;48.110;19.838;2023-04-29T01:06:47;97704.00;;;9.98;73.08
70921;BME280;58572;48.110;19.838;2023-04-29T01:09:25;97718.81;;;9.77;77.02
70921;BME280;58572;48.110;19.838;2023-04-29T01:12:02;97722.41;;;9.67;77.26
70921;BME280;58572;48.110;19.838;2023-04-29T01:14:33;97708.31;;;9.65;74.88
70921;BME280;58572;48.110;19.838;2023-04-29T01:17:09;97689.72;;;9.43;77.44
70921;BME280;58572;48.110;19.838;2023-04-29T01:19:46;97716.88;;;9.33;78.55
70921;BME280;58572;48.110;19.838;2023-04-29T01:22:13;97660.34;;;9.89;71.37
70921;BME280;58572;48.110;19.838;2023-04-29T01:24:44;97715.97;;;9.97;74.45
70921;BME280;58572;48.110;19.838;2023-04-29T01:27:19;97665.13;;;10.03;68.96
70921;BME280;58572;48.110;19.838;2023-04-29T01:29:56;97719.06;;;10.77;67.65
70921;BME280;58572;48.110;19.838;2023-04-29T01:32:31;97717.09;;;10.59;68.85
70921;BME280;58572;48.110;19.838;2023-04-29T01:35:07;97612.06;;;9.86;68.75
70921;BME280;58572;48.110;19.838;2023-04-29T01:37:40;97561.91;;;9.79;67.71
70921;BME280;58572;48.110;19.838;2023-04-29T01:40:15;97708.78;;;10.74;68.79
70921;BME280;58572;48.110;19.838;2023-04-29T01:42:47;97625.22;;;10.32;66.97
70921;BME280;58572;48.110;19.838;2023-04-29T01:45:18;97704.44;;;10.97;66.30
70921;BME280;58572;48.110;19.838;2023-04-29T01:47:48;97705.19;;;10.79;66.95
70921;BME280;58572;48.110;19.838;2023-04-29T01:50:20;97648.63;;;10.57;66.91
70921;BME280;58572;48.110;19.838;2023-04-29T01:52:47;97706.34;;;10.97;66.24
70921;BME280;58572;48.110;19.838;2023-04-29T01:55:17;97703.56;;;11.02;65.49
70921;BME280;58572;48.110;19.838;2023-04-29T01:57:44;97705.41;;;10.82;68.69
70921;BME280;58572;48.110;19.838;2023-04-29T02:00:11;97707.72;;;10.94;66.49
70921;BME280;58572;48.110;19.838;2023-04-29T02:02:39;97710.75;;;10.69;67.74
70921;BME280;58572;48.110;19.838;2023-04-29T02:05:07;97705.88;;;10.66;67.67
70921;BME280;58572;48.110;19.838;2023-04-29T02:07:35;97708.59;;;10.90;66.38
70921;BME280;58572;48.110;19.838;2023-04-29T02:10:03;97703.16;;;10.90;67.73
70921;BME280;58572;48.110;19.838;2023-04-29T02:12:32;97699.44;;;11.04;68.78
70921;BME280;58572;48.110;19.838;2023-04-29T02:15:00;97697.78;;;11.08;65.35
70921;BME280;58572;48.110;19.838;2023-04-29T02:17:27;97697.69;;;11.13;64.73
70921;BME280;58572;48.110;19.838;2023-04-29T02:19:54;97700.66;;;11.17;65.19
70921;BME280;58572;48.110;19.838;2023-04-29T02:22:21;97700.66;;;11.17;65.08
70921;BME280;58572;48.110;19.838;2023-04-29T02:24:48;97698.47;;;10.95;67.48
70921;BME280;58572;48.110;19.838;2023-04-29T02:27:15;97586.38;;;10.32;65.06
70921;BME280;58572;48.110;19.838;2023-04-29T02:29:44;97698.22;;;11.15;64.49
70921;BME280;58572;48.110;19.838;2023-04-29T02:32:11;97697.78;;;11.08;64.81
70921;BME280;58572;48.110;19.838;2023-04-29T02:34:39;97693.88;;;11.14;64.68
70921;BME280;58572;48.110;19.838;2023-04-29T02:37:06;97698.59;;;10.61;67.18
70921;BME280;58572;48.110;19.838;2023-04-29T02:39:34;97695.16;;;10.98;65.46
70921;BME280;58572;48.110;19.838;2023-04-29T02:42:01;97697.66;;;10.47;71.24
70921;BME280;58572;48.110;19.838;2023-04-29T02:44:29;97687.03;;;10.74;67.05
70921;BME280;58572;48.110;19.838;2023-04-29T02:46:58;97695.72;;;10.13;73.32
70921;BME280;58572;48.110;19.838;2023-04-29T02:49:25;97687.38;;;10.68;69.70
70921;BME280;58572;48.110;19.838;2023-04-29T02:51:52;97689.66;;;10.55;67.78
70921;BME280;58572;48.110;19.838;2023-04-29T02:54:20;97695.00;;;10.90;65.89
70921;BME280;58572;48.110;19.838;2023-04-29T02:56:47;97685.50;;;10.63;67.12
70921;BME280;58572;48.110;19.838;2023-04-29T02:59:14;97687.28;;;10.20;71.87
70921;BME280;58572;48.110;19.838;2023-04-29T03:01:41;97638.78;;;10.61;66.50
70921;BME280;58572;48.110;19.838;2023-04-29T03:04:10;97684.34;;;10.93;65.76
70921;BME280;58572;48.110;19.838;2023-04-29T03:06:37;97678.69;;;10.42;68.01
70921;BME280;58572;48.110;19.838;2023-04-29T03:09:04;97692.66;;;9.91;72.08
70921;BME280;58572;48.110;19.838;2023-04-29T03:11:32;97677.19;;;10.78;66.26
70921;BME280;58572;48.110;19.838;2023-04-29T03:13:59;97676.25;;;10.88;65.51
70921;BME280;58572;48.110;19.838;2023-04-29T03:16:26;97683.28;;;10.41;70.31
70921;BME280;58572;48.110;19.838;2023-04-29T03:18:54;97683.53;;;10.45;70.13
70921;BME280;58572;48.110;19.838;2023-04-29T03:21:23;97670.31;;;10.62;66.94
70921;BME280;58572;48.110;19.838;2023-04-29T03:23:52;97678.91;;;10.93;65.23
70921;BME280;58572;48.110;19.838;2023-04-29T03:26:19;97550.03;;;9.99;65.61
70921;BME280;58572;48.110;19.838;2023-04-29T03:28:47;97681.47;;;10.84;65.71
70921;BME280;58572;48.110;19.838;2023-04-29T03:31:14;97690.09;;;10.39;68.28
70921;BME280;58572;48.110;19.838;2023-04-29T03:33:41;97604.34;;;10.28;66.13
70921;BME280;58572;48.110;19.838;2023-04-29T03:36:08;97622.47;;;10.03;67.59
70921;BME280;58572;48.110;19.838;2023-04-29T03:38:37;97682.09;;;10.76;66.09
70921;BME280;58572;48.110;19.838;2023-04-29T03:41:05;97686.22;;;10.74;65.97
70921;BME280;58572;48.110;19.838;2023-04-29T03:43:32;97550.19;;;9.83;65.42
70921;BME280;58572;48.110;19.838;2023-04-29T03:45:59;97695.00;;;10.66;68.25
70921;BME280;58572;48.110;19.838;2023-04-29T03:48:26;97691.00;;;10.58;67.79
70921;BME280;58572;48.110;19.838;2023-04-29T03:50:53;97689.22;;;10.72;66.10
70921;BME280;58572;48.110;19.838;2023-04-29T03:53:21;97696.97;;;10.84;65.29
70921;BME280;58572;48.110;19.838;2023-04-29T03:55:51;97696.63;;;10.91;65.42
70921;BME280;58572;48.110;19.838;2023-04-29T03:58:18;97532.31;;;9.77;65.09
70921;BME280;58572;48.110;19.838;2023-04-29T04:00:45;97705.06;;;10.65;66.09
70921;BME280;58572;48.110;19.838;2023-04-29T04:03:12;97706.09;;;10.69;66.16
70921;BME280;58572;48.110;19.838;2023-04-29T04:05:39;97708.25;;;10.72;65.82
70921;BME280;58572;48.110;19.838;2023-04-29T04:08:07;97708.34;;;10.62;66.05
70921;BME280;58572;48.110;19.838;2023-04-29T04:10:34;97710.97;;;10.72;65.60
70921;BME280;58572;48.110;19.838;2023-04-29T04:13:02;97709.16;;;10.34;67.56
70921;BME280;58572;48.110;19.838;2023-04-29T04:15:29;97710.22;;;10.38;67.83
70921;BME280;58572;48.110;19.838;2023-04-29T04:17:57;97618.53;;;9.90;67.20
70921;BME280;58572;48.110;19.838;2023-04-29T04:20:24;97704.34;;;10.26;70.12
70921;BME280;58572;48.110;19.838;2023-04-29T04:22:52;97704.06;;;10.56;67.88
70921;BME280;58572;48.110;19.838;2023-04-29T04:25:19;97701.78;;;10.68;66.33
70921;BME280;58572;48.110;19.838;2023-04-29T04:27:46;97639.47;;;10.48;65.53
70921;BME280;58572;48.110;19.838;2023-04-29T04:30:15;97702.06;;;10.91;65.21
70921;BME280;58572;48.110;19.838;2023-04-29T04:32:42;97700.03;;;10.77;65.66
70921;BME280;58572;48.110;19.838;2023-04-29T04:35:09;97703.91;;;10.95;65.18
70921;BME280;58572;48.110;19.838;2023-04-29T04:37:37;97703.03;;;11.00;65.14
70921;BME280;58572;48.110;19.838;2023-04-29T04:40:05;97701.59;;;10.83;65.78
70921;BME280;58572;48.110;19.838;2023-04-29T04:42:34;97698.69;;;10.51;71.53
70921;BME280;58572;48.110;19.838;2023-04-29T04:45:01;97696.44;;;10.58;67.31
70921;BME280;58572;48.110;19.838;2023-04-29T04:47:30;97667.59;;;10.33;71.12
70921;BME280;58572;48.110;19.838;2023-04-29T04:49:57;97701.78;;;10.68;66.66
70921;BME280;58572;48.110;19.838;2023-04-29T04:52:24;97714.69;;;10.23;74.99
70921;BME280;58572;48.110;19.838;2023-04-29T04:54:51;97641.03;;;9.96;71.64
70921;BME280;58572;48.110;19.838;2023-04-29T04:57:18;97706.53;;;10.81;66.18
70921;BME280;58572;48.110;19.838;2023-04-29T04:59:45;97697.09;;;10.98;65.49
70921;BME280;58572;48.110;19.838;2023-04-29T05:02:13;97705.31;;;10.93;65.04
70921;BME280;58572;48.110;19.838;2023-04-29T05:04:41;97708.41;;;11.05;64.65
70921;BME280;58572;48.110;19.838;2023-04-29T05:07:09;97706.16;;;11.12;64.75
70921;BME280;58572;48.110;19.838;2023-04-29T05:09:36;97698.56;;;11.09;65.17
70921;BME280;58572;48.110;19.838;2023-04-29T05:12:03;97705.75;;;11.00;65.33
70921;BME280;58572;48.110;19.838;2023-04-29T05:14:31;97707.66;;;10.51;69.75
70921;BME280;58572;48.110;19.838;2023-04-29T05:16:58;97685.47;;;10.92;65.26
70921;BME280;58572;48.110;19.838;2023-04-29T05:19:25;97699.09;;;11.11;65.69
70921;BME280;58572;48.110;19.838;2023-04-29T05:21:54;97698.56;;;11.09;65.28
70921;BME280;58572;48.110;19.838;2023-04-29T05:24:21;97691.56;;;11.03;65.62
70921;BME280;58572;48.110;19.838;2023-04-29T05:26:48;97662.22;;;10.57;67.85
70921;BME280;58572;48.110;19.838;2023-04-29T05:29:16;97602.00;;;10.45;72.22
70921;BME280;58572;48.110;19.838;2023-04-29T05:31:43;97663.00;;;11.24;65.28
70921;BME280;58572;48.110;19.838;2023-04-29T05:34:10;97663.91;;;11.38;70.02
70921;BME280;58572;48.110;19.838;2023-04-29T05:36:38;97668.63;;;11.89;63.41
70921;BME280;58572;48.110;19.838;2023-04-29T05:39:06;97672.16;;;11.71;64.19
70921;BME280;58572;48.110;19.838;2023-04-29T05:41:33;97553.13;;;10.82;63.99
70921;BME280;58572;48.110;19.838;2023-04-29T05:44:00;97687.84;;;11.60;64.05
70921;BME280;58572;48.110;19.838;2023-04-29T05:46:27;97707.94;;;11.22;69.10
70921;BME280;58572;48.110;19.838;2023-04-29T05:48:55;97708.84;;;11.36;64.16
70921;BME280;58572;48.110;19.838;2023-04-29T05:51:22;97708.97;;;11.49;64.59
70921;BME280;58572;48.110;19.838;2023-04-29T05:53:49;97713.66;;;11.63;63.95
70921;BME280;58572;48.110;19.838;2023-04-29T05:56:17;97716.91;;;11.65;63.71
70921;BME280;58572;48.110;19.838;2023-04-29T05:58:45;97669.66;;;10.94;65.15
70921;BME280;58572;48.110;19.838;2023-04-29T06:01:12;97718.09;;;11.35;64.81
70921;BME280;58572;48.110;19.838;2023-04-29T06:03:39;97713.88;;;11.66;63.27
70921;BME280;58572;48.110;19.838;2023-04-29T06:06:06;97722.06;;;11.47;64.40
70921;BME280;58572;48.110;19.838;2023-04-29T06:08:33;97723.19;;;11.41;64.77
70921;BME280;58572;48.110;19.838;2023-04-29T06:11:00;97726.63;;;11.52;64.02
70921;BME280;58572;48.110;19.838;2023-04-29T06:13:29;97724.78;;;11.47;64.02
70921;BME280;58572;48.110;19.838;2023-04-29T06:15:56;97724.88;;;11.37;64.28
70921;BME280;58572;48.110;19.838;2023-04-29T06:18:23;97726.50;;;11.38;64.23
70921;BME280;58572;48.110;19.838;2023-04-29T06:20:50;97720.47;;;11.41;64.23
70921;BME280;58572;48.110;19.838;2023-04-29T06:23:17;97728.97;;;11.59;64.24
70921;BME280;58572;48.110;19.838;2023-04-29T06:25:45;97726.47;;;11.62;64.66
70921;BME280;58572;48.110;19.838;2023-04-29T06:28:12;97717.56;;;11.57;64.49
70921;BME280;58572;48.110;19.838;2023-04-29T06:30:40;97720.72;;;11.64;64.31
70921;BME280;58572;48.110;19.838;2023-04-29T06:33:08;97721.31;;;11.61;63.64
70921;BME280;58572;48.110;19.838;2023-04-29T06:35:38;97722.50;;;11.55;64.60
70921;BME280;58572;48.110;19.838;2023-04-29T06:38:05;97737.28;;;11.48;64.72
70921;BME280;58572;48.110;19.838;2023-04-29T06:40:34;97722.66;;;11.63;63.59
70921;BME280;58572;48.110;19.838;2023-04-29T06:43:01;97700.56;;;11.65;62.84
70921;BME280;58572;48.110;19.838;2023-04-29T06:45:28;97725.81;;;11.70;63.47
70921;BME280;58572;48.110;19.838;2023-04-29T06:47:57;97700.28;;;11.47;64.51
70921;BME280;58572;48.110;19.838;2023-04-29T06:50:24;97724.72;;;11.90;62.87
70921;BME280;58572;48.110;19.838;2023-04-29T06:52:52;97727.66;;;11.75;63.83
70921;BME280;58572;48.110;19.838;2023-04-29T06:55:19;97722.19;;;12.12;62.25
70921;BME280;58572;48.110;19.838;2023-04-29T06:57:46;97725.47;;;11.96;63.73
70921;BME280;58572;48.110;19.838;2023-04-29T07:00:14;97723.47;;;12.01;62.63
70921;BME280;58572;48.110;19.838;2023-04-29T07:02:41;97728.34;;;12.69;61.67
70921;BME280;58572;48.110;19.838;2023-04-29T07:05:10;97723.59;;;12.75;61.63
70921;BME280;58572;48.110;19.838;2023-04-29T07:07:37;97732.81;;;12.46;61.71
70921;BME280;58572;48.110;19.838;2023-04-29T07:10:05;97732.13;;;12.22;64.02
70921;BME280;58572;48.110;19.838;2023-04-29T07:12:32;97732.81;;;12.46;62.00
70921;BME280;58572;48.110;19.838;2023-04-29T07:14:59;97731.63;;;12.53;61.99
70921;BME280;58572;48.110;19.838;2023-04-29T07:17:28;97740.63;;;12.53;62.22
70921;BME280;58572;48.110;19.838;2023-04-29T07:19:56;97634.19;;;12.12;60.88
70921;BME280;58572;48.110;19.838;2023-04-29T07:22:24;97743.13;;;12.50;61.85
70921;BME280;58572;48.110;19.838;2023-04-29T07:24:52;97684.59;;;11.96;62.82
70921;BME280;58572;48.110;19.838;2023-04-29T07:27:20;97750.41;;;11.65;73.87
70921;BME280;58572;48.110;19.838;2023-04-29T07:29:47;97750.28;;;11.94;68.79
70921;BME280;58572;48.110;19.838;2023-04-29T07:32:14;97752.25;;;12.59;63.65
70921;BME280;58572;48.110;19.838;2023-04-29T07:34:41;97754.63;;;12.46;64.50
70921;BME280;58572;48.110;19.838;2023-04-29T07:37:08;97748.03;;;12.66;62.68
70921;BME280;58572;48.110;19.838;2023-04-29T07:39:37;97751.84;;;12.52;67.19
70921;BME280;58572;48.110;19.838;2023-04-29T07:42:06;97714.72;;;13.24;63.51
70921;BME280;58572;48.110;19.838;2023-04-29T07:44:34;97742.63;;;13.35;64.73
70921;BME280;58572;48.110;19.838;2023-04-29T07:47:01;97742.53;;;13.54;64.79
70921;BME280;58572;48.110;19.838;2023-04-29T07:49:28;97748.06;;;13.49;62.90
70921;BME280;58572;48.110;19.838;2023-04-29T07:51:55;97448.56;;;11.59;65.25
70921;BME280;58572;48.110;19.838;2023-04-29T07:54:23;97720.16;;;13.52;62.92
70921;BME280;58572;48.110;19.838;2023-04-29T07:56:51;97755.97;;;13.50;61.72
70921;BME280;58572;48.110;19.838;2023-04-29T07:59:18;97756.19;;;13.40;66.64
70921;BME280;58572;48.110;19.838;2023-04-29T08:01:45;97752.22;;;13.46;63.90
70921;BME280;58572;48.110;19.838;2023-04-29T08:04:12;97753.56;;;13.62;61.35
70921;BME280;58572;48.110;19.838;2023-04-29T08:06:39;97755.78;;;13.47;62.78
70921;BME280;58572;48.110;19.838;2023-04-29T08:09:07;97756.59;;;13.61;62.34
70921;BME280;58572;48.110;19.838;2023-04-29T08:11:34;97752.13;;;13.10;63.65
70921;BME280;58572;48.110;19.838;2023-04-29T08:14:03;97756.59;;;13.33;61.98
70921;BME280;58572;48.110;19.838;2023-04-29T08:16:30;97755.59;;;13.57;61.08
70921;BME280;58572;48.110;19.838;2023-04-29T08:18:57;97761.84;;;13.57;61.48
70921;BME280;58572;48.110;19.838;2023-04-29T08:21:24;97713.50;;;13.44;60.67
70921;BME280;58572;48.110;19.838;2023-04-29T08:23:52;97751.22;;;14.05;61.33
70921;BME280;58572;48.110;19.838;2023-04-29T08:26:20;97750.97;;;14.16;63.88
70921;BME280;58572;48.110;19.838;2023-04-29T08:28:48;97755.44;;;13.07;65.63
70921;BME280;58572;48.110;19.838;2023-04-29T08:31:18;97759.63;;;13.46;62.91
70921;BME280;58572;48.110;19.838;2023-04-29T08:33:45;97766.28;;;13.67;64.13
70921;BME280;58572;48.110;19.838;2023-04-29T08:36:13;97767.44;;;12.46;72.38
70921;BME280;58572;48.110;19.838;2023-04-29T08:38:40;97771.47;;;12.67;63.67
70921;BME280;58572;48.110;19.838;2023-04-29T08:41:07;97766.88;;;13.09;66.07
70921;BME280;58572;48.110;19.838;2023-04-29T08:43:36;97770.84;;;13.71;62.02
70921;BME280;58572;48.110;19.838;2023-04-29T08:46:06;97769.84;;;13.54;64.86
70921;BME280;58572;48.110;19.838;2023-04-29T08:48:36;97767.50;;;13.74;61.56
70921;BME280;58572;48.110;19.838;2023-04-29T08:51:05;97776.00;;;13.73;61.72
70921;BME280;58572;48.110;19.838;2023-04-29T08:53:32;97768.53;;;13.24;62.61
70921;BME280;58572;48.110;19.838;2023-04-29T08:56:06;97579.44;;;12.68;63.56
70921;BME280;58572;48.110;19.838;2023-04-29T08:58:35;97761.00;;;13.02;64.89
70921;BME280;58572;48.110;19.838;2023-04-29T09:01:07;97760.16;;;13.97;61.71
70921;BME280;58572;48.110;19.838;2023-04-29T09:03:55;97760.16;;;13.97;61.77
70921;BME280;58572;48.110;19.838;2023-04-29T09:06:27;97755.81;;;14.41;60.53
70921;BME280;58572;48.110;19.838;2023-04-29T09:08:58;97747.44;;;14.37;63.24
70921;BME280;58572;48.110;19.838;2023-04-29T09:11:26;97760.63;;;13.50;64.84
70921;BME280;58572;48.110;19.838;2023-04-29T09:13:58;97757.47;;;13.15;61.32
70921;BME280;58572;48.110;19.838;2023-04-29T09:16:26;97752.00;;;12.88;63.64
70921;BME280;58572;48.110;19.838;2023-04-29T09:18:55;97748.41;;;13.20;62.65
70921;BME280;58572;48.110;19.838;2023-04-29T09:21:24;97601.34;;;12.63;61.46
70921;BME280;58572;48.110;19.838;2023-04-29T09:23:52;97750.47;;;13.78;58.60
70921;BME280;58572;48.110;19.838;2023-04-29T09:26:20;97760.91;;;14.12;59.01
70921;BME280;58572;48.110;19.838;2023-04-29T09:29:05;97753.28;;;13.86;58.50
70921;BME280;58572;48.110;19.838;2023-04-29T09:31:33;97749.97;;;14.12;58.95
70921;BME280;58572;48.110;19.838;2023-04-29T09:34:01;97750.25;;;14.46;57.88
70921;BME280;58572;48.110;19.838;2023-04-29T09:36:39;97757.72;;;13.60;58.91
70921;BME280;58572;48.110;19.838;2023-04-29T09:39:07;97699.25;;;13.83;57.92
70921;BME280;58572;48.110;19.838;2023-04-29T09:41:56;97743.94;;;14.59;57.01
70921;BME280;58572;48.110;19.838;2023-04-29T09:44:25;97750.00;;;14.56;57.25
70921;BME280;58572;48.110;19.838;2023-04-29T09:46:57;97750.09;;;13.43;57.63
70921;BME280;58572;48.110;19.838;2023-04-29T09:49:29;97750.13;;;14.51;58.29
70921;BME280;58572;48.110;19.838;2023-04-29T09:51:59;97745.25;;;14.26;58.31
70921;BME280;58572;48.110;19.838;2023-04-29T09:54:27;97652.19;;;13.86;57.61
70921;BME280;58572;48.110;19.838;2023-04-29T09:56:56;97743.31;;;13.68;61.89
70921;BME280;58572;48.110;19.838;2023-04-29T09:59:24;97740.19;;;13.06;59.01
70921;BME280;58572;48.110;19.838;2023-04-29T10:01:52;97705.72;;;13.87;59.41
70921;BME280;58572;48.110;19.838;2023-04-29T10:04:21;97740.97;;;15.09;56.23
70921;BME280;58572;48.110;19.838;2023-04-29T10:06:52;97617.41;;;14.00;56.06
70921;BME280;58572;48.110;19.838;2023-04-29T10:09:22;97687.69;;;14.76;55.61
70921;BME280;58572;48.110;19.838;2023-04-29T10:11:51;97744.47;;;15.01;55.42
70921;BME280;58572;48.110;19.838;2023-04-29T10:14:20;97738.41;;;14.15;61.01
70921;BME280;58572;48.110;19.838;2023-04-29T10:16:53;97747.72;;;14.72;58.09
70921;BME280;58572;48.110;19.838;2023-04-29T10:19:26;97740.03;;;15.22;58.65
70921;BME280;58572;48.110;19.838;2023-04-29T10:22:06;97703.41;;;15.01;59.82
70921;BME280;58572;48.110;19.838;2023-04-29T10:24:35;97728.75;;;15.63;56.63
70921;BME280;58572;48.110;19.838;2023-04-29T10:27:06;97655.75;;;15.02;52.53
70921;BME280;58572;48.110;19.838;2023-04-29T10:29:33;97737.13;;;14.79;55.11
70921;BME280;58572;48.110;19.838;2023-04-29T10:32:03;97654.78;;;14.58;55.71
70921;BME280;58572;48.110;19.838;2023-04-29T10:34:36;97594.56;;;13.74;56.77
70921;BME280;58572;48.110;19.838;2023-04-29T10:37:05;97728.19;;;13.84;56.65
70921;BME280;58572;48.110;19.838;2023-04-29T10:39:38;97730.81;;;13.89;56.76
70921;BME280;58572;48.110;19.838;2023-04-29T10:42:16;97727.72;;;14.27;56.77
70921;BME280;58572;48.110;19.838;2023-04-29T10:45:18;97724.97;;;14.63;58.62
70921;BME280;58572;48.110;19.838;2023-04-29T10:48:09;97723.53;;;14.65;56.24
70921;BME280;58572;48.110;19.838;2023-04-29T10:51:01;97719.91;;;14.79;54.92
70921;BME280;58572;48.110;19.838;2023-04-29T10:53:30;97729.59;;;14.40;52.94
70921;BME280;58572;48.110;19.838;2023-04-29T10:56:02;97722.81;;;14.82;54.46
70921;BME280;58572;48.110;19.838;2023-04-29T10:58:42;97720.44;;;15.38;52.84
70921;BME280;58572;48.110;19.838;2023-04-29T11:01:11;97726.44;;;15.00;53.15
70921;BME280;58572;48.110;19.838;2023-04-29T11:03:54;97720.03;;;14.06;52.16
70921;BME280;58572;48.110;19.838;2023-04-29T11:06:25;97712.94;;;14.50;50.81
70921;BME280;58572;48.110;19.838;2023-04-29T11:09:01;97683.16;;;15.19;52.50
70921;BME280;58572;48.110;19.838;2023-04-29T11:11:55;97702.97;;;16.25;50.69
70921;BME280;58572;48.110;19.838;2023-04-29T11:16:51;97699.38;;;16.42;51.18
70921;BME280;58572;48.110;19.838;2023-04-29T11:19:19;97581.13;;;16.26;51.72
70921;BME280;58572;48.110;19.838;2023-04-29T11:21:47;97687.25;;;17.15;49.75
70921;BME280;58572;48.110;19.838;2023-04-29T11:24:15;97693.94;;;16.97;49.29
70921;BME280;58572;48.110;19.838;2023-04-29T11:26:42;97662.94;;;16.33;49.39
70921;BME280;58572;48.110;19.838;2023-04-29T11:29:11;97659.19;;;17.31;47.62
70921;BME280;58572;48.110;19.838;2023-04-29T11:31:38;97621.44;;;15.05;46.51
70921;BME280;58572;48.110;19.838;2023-04-29T11:34:05;97679.50;;;17.09;47.45
70921;BME280;58572;48.110;19.838;2023-04-29T11:36:33;97677.13;;;18.41;43.53
70921;BME280;58572;48.110;19.838;2023-04-29T11:39:02;97692.44;;;15.58;49.10
70921;BME280;58572;48.110;19.838;2023-04-29T11:41:31;97685.66;;;16.68;47.68
70921;BME280;58572;48.110;19.838;2023-04-29T11:44:00;97637.47;;;16.15;45.52
70921;BME280;58572;48.110;19.838;2023-04-29T11:46:30;97669.69;;;18.54;44.95
70921;BME280;58572;48.110;19.838;2023-04-29T11:48:57;97685.16;;;15.45;48.46
70921;BME280;58572;48.110;19.838;2023-04-29T11:51:26;97685.56;;;15.86;48.80
70921;BME280;58572;48.110;19.838;2023-04-29T11:53:53;97671.72;;;16.81;46.95
70921;BME280;58572;48.110;19.838;2023-04-29T11:56:22;97627.69;;;17.28;45.86
70921;BME280;58572;48.110;19.838;2023-04-29T11:58:54;97602.06;;;15.75;48.48
70921;BME280;58572;48.110;19.838;2023-04-29T12:01:22;97656.78;;;18.33;45.86
70921;BME280;58572;48.110;19.838;2023-04-29T12:03:55;97655.97;;;18.66;45.85
70921;BME280;58572;48.110;19.838;2023-04-29T12:06:26;97535.47;;;17.18;44.75
70921;BME280;58572;48.110;19.838;2023-04-29T12:08:53;97668.84;;;15.22;47.33
70921;BME280;58572;48.110;19.838;2023-04-29T12:11:22;97646.94;;;17.78;49.37
70921;BME280;58572;48.110;19.838;2023-04-29T12:13:51;97653.38;;;16.47;44.66
70921;BME280;58572;48.110;19.838;2023-04-29T12:16:21;97661.44;;;17.08;48.12
70921;BME280;58572;48.110;19.838;2023-04-29T12:18:50;97649.06;;;18.14;45.29
70921;BME280;58572;48.110;19.838;2023-04-29T12:21:18;97664.25;;;18.66;45.29
70921;BME280;58572;48.110;19.838;2023-04-29T12:23:45;97653.91;;;18.63;45.24
70921;BME280;58572;48.110;19.838;2023-04-29T12:26:12;97648.81;;;18.52;44.65
70921;BME280;58572;48.110;19.838;2023-04-29T12:28:40;97658.72;;;16.99;45.50
70921;BME280;58572;48.110;19.838;2023-04-29T12:31:08;97643.31;;;18.52;45.22
70921;BME280;58572;48.110;19.838;2023-04-29T12:33:41;97642.06;;;18.17;45.07
70921;BME280;58572;48.110;19.838;2023-04-29T12:36:15;97646.75;;;17.54;42.89
70921;BME280;58572;48.110;19.838;2023-04-29T12:38:44;97639.75;;;16.04;44.22
70921;BME280;58572;48.110;19.838;2023-04-29T12:41:13;97643.13;;;16.10;44.39
70921;BME280;58572;48.110;19.838;2023-04-29T12:43:42;97628.94;;;16.80;45.67
70921;BME280;58572;48.110;19.838;2023-04-29T12:46:09;97622.59;;;18.22;43.77
70921;BME280;58572;48.110;19.838;2023-04-29T12:48:40;97623.13;;;19.83;43.68
70921;BME280;58572;48.110;19.838;2023-04-29T12:51:08;97615.34;;;19.60;40.15
70921;BME280;58572;48.110;19.838;2023-04-29T12:53:36;97564.16;;;19.35;42.57
70921;BME280;58572;48.110;19.838;2023-04-29T12:56:04;97553.16;;;20.19;39.62
70921;BME280;58572;48.110;19.838;2023-04-29T12:58:31;97543.13;;;20.42;42.54
70921;BME280;58572;48.110;19.838;2023-04-29T13:00:59;97529.47;;;20.18;40.78